Accueil
METAR-TAF:

METAR-TAF

Aéroports :

Ferrare, Italie

latitude: 44-50N, longitude: 011-37E, altitude: 10 m

Observation

Le bulletin a été fait il y a 30 minutes, à 07:55 UTC
Vent calme
Température 5°C
Humidité 81%
Pression 1034 hPa
Visibilité 10 km ou plus
Nuages fragmentés à une hauteur de 5000 ft

METAR: LIPF 230755Z 00000KT 9999 BKN050 05/02 Q1034 RMK BKN VIS MIN 9999

Heure: 09:25 (08:25 UTC)


TAF: absent

Observations et prévisions météorologiques de plus de 4000 aéroports (messages METAR et TAF).

Les stations disponibles sont représentées par des disques jaunes et rouges sur la carte.

Passer la souris dessus pour voir le nom de la station.

Cliquer dessus pour voir les observations et prévisions météorologiques.

Pour changer de carte: cliquez sur les boutons verts avec une croix noire pour zoomer, sur le bouton vert avec un tiret pour effectuer un zoom arrière, ou sur les flèches vertes pour les cartes adjacentes.


METAR-TAF: